Time;durP1;ratioP1;P1;durP2;ratioP2;P2;SDS_P1;SDS_P2;PMS_P1;PMS_P2;Temp;Humidity;BMP_temperature;BMP_pressure;BME280_temperature;BME280_humidity;BME280_pressure;Samples;Min_cycle;Max_cycle;Signal;HPM_P1;HPM_P2
2023/05/02 10:30:12;;;;;;;;;;;;;;;16.72;100.00;98308.09;5079550;28;19958;-58
2023/05/02 10:32:37;;;;;;;;;;;;;;;16.76;100.00;98300.63;5061816;28;20378;-61
2023/05/02 10:35:04;;;;;;;;;;;;;;;16.90;100.00;98296.28;5077025;28;19924;-58
2023/05/02 10:37:35;;;;;;;;;;;;;;;16.93;98.64;98288.03;5054973;28;19924;-58
2023/05/02 10:40:08;;;;;;;;;;;;;;;16.98;99.24;98280.41;5008593;28;21183;-58
2023/05/02 10:42:51;;;;;;;;;;;;;;;16.99;98.08;98274.13;5078854;28;19928;-59
2023/05/02 10:45:35;;;;;;;;;;;;;;;16.99;96.51;98271.50;5056020;28;19920;-59
2023/05/02 10:48:15;;;;;;;;;;;;;;;17.06;95.26;98279.41;5059262;28;20126;-60
2023/05/02 10:50:52;;;;;;;;;;;;;;;17.14;94.92;98268.75;5057065;28;19924;-60
2023/05/02 10:53:49;;;;;;;;;;;;;;;17.17;92.80;98278.06;5070877;28;19971;-57
2023/05/02 10:56:36;;;;;;;;;;;;;;;17.21;91.35;98280.13;5071794;28;19930;-59
2023/05/02 10:59:21;;;;;;;;;;;;;;;17.30;90.87;98272.84;5049810;28;19927;-59
2023/05/02 11:01:54;;;;;;;;;;;;;;;17.37;91.96;98267.63;5058759;28;19924;-61
2023/05/02 11:04:22;;;;;;;;;;;;;;;17.39;89.95;98266.41;5057998;28;19924;-59
2023/05/02 11:06:58;;;;;;;;;;;;;;;17.51;90.24;98263.25;5049980;28;20004;-60
2023/05/02 11:09:24;;;;;;;;;;;;;;;17.61;90.03;98261.03;5075534;28;19928;-59
2023/05/02 11:11:51;;;;;;;;;;;;;;;17.59;89.26;98252.53;5071522;28;20332;-59
2023/05/02 11:14:31;;;;;;;;;;;;;;;17.67;90.48;98250.53;5059194;28;19923;-58
2023/05/02 11:17:00;;;;;;;;;;;;;;;17.81;91.11;98254.00;5076753;28;19924;-58
2023/05/02 11:19:29;;;;;;;;;;;;;;;17.90;91.81;98252.00;5070305;28;21250;-58
2023/05/02 11:22:13;;;;;;;;;;;;;;;18.10;87.93;98249.41;5061469;28;19928;-59
2023/05/02 11:24:39;;;;;;;;;;;;;;;18.15;86.07;98246.19;5066455;28;19924;-60
2023/05/02 11:27:36;;;;;;;;;;;;;;;18.02;87.84;98245.16;5068729;28;19973;-59
2023/05/02 11:30:05;;;;;;;;;;;;;;;18.11;88.96;98243.16;5077490;28;20011;-61
2023/05/02 11:32:48;;;;;;;;;;;;;;;18.17;88.01;98246.78;5036824;28;20453;-59
2023/05/02 11:35:19;;;;;;;;;;;;;;;18.14;86.31;98236.66;5042698;28;19931;-60
2023/05/02 11:38:02;;;;;;;;;;;;;;;18.32;87.56;98249.19;5034821;28;19973;-59
2023/05/02 11:40:38;;;;;;;;;;;;;;;18.35;86.62;98243.53;5063179;28;19924;-61
2023/05/02 11:43:29;;;;;;;;;;;;;;;18.33;86.49;98233.22;5054755;28;19928;-57
2023/05/02 11:45:55;;;;;;;;;;;;;;;18.47;84.14;98236.63;5047145;28;20857;-60
2023/05/02 11:48:26;;;;;;;;;;;;;;;18.63;84.49;98240.66;5035774;28;19932;-58
2023/05/02 11:50:52;;;;;;;;;;;;;;;18.66;84.35;98237.63;5052192;28;19931;-61
2023/05/02 11:53:22;;;;;;;;;;;;;;;18.69;85.36;98226.69;5066366;28;19926;-60
2023/05/02 11:55:50;;;;;;;;;;;;;;;18.78;83.80;98232.53;5067354;28;20326;-58
2023/05/02 11:58:17;;;;;;;;;;;;;;;18.75;83.44;98233.75;5059271;28;19942;-58
2023/05/02 12:00:46;;;;;;;;;;;;;;;18.72;82.22;98230.72;5035323;28;19927;-58
2023/05/02 12:03:27;;;;;;;;;;;;;;;18.87;83.11;98235.78;5056820;28;20437;-59
2023/05/02 12:05:52;;;;;;;;;;;;;;;18.88;81.64;98237.41;5055733;28;19965;-59
2023/05/02 12:08:21;;;;;;;;;;;;;;;18.91;80.98;98242.25;5051775;28;19913;-58
2023/05/02 12:10:50;;;;;;;;;;;;;;;18.90;80.25;98236.16;5038419;28;19931;-59
2023/05/02 12:13:16;;;;;;;;;;;;;;;19.07;81.15;98241.78;5058261;28;19946;-59
2023/05/02 12:15:43;;;;;;;;;;;;;;;19.04;79.92;98236.13;5066478;28;20547;-60
2023/05/02 12:18:11;;;;;;;;;;;;;;;19.02;78.90;98246.88;5068407;28;20388;-59
2023/05/02 12:20:40;;;;;;;;;;;;;;;19.15;78.71;98240.75;5065232;28;19925;-58
2023/05/02 12:23:05;;;;;;;;;;;;;;;19.22;79.67;98238.91;5021932;28;19924;-60
2023/05/02 12:25:31;;;;;;;;;;;;;;;19.25;78.82;98245.56;5069287;28;20008;-59
2023/05/02 12:28:00;;;;;;;;;;;;;;;19.18;78.55;98238.50;5068917;28;19932;-58
2023/05/02 12:30:29;;;;;;;;;;;;;;;19.26;78.30;98239.28;5028447;28;19928;-60
2023/05/02 12:33:00;;;;;;;;;;;;;;;19.33;75.70;98235.59;5040486;28;19929;-59
2023/05/02 12:35:26;;;;;;;;;;;;;;;19.35;76.82;98244.13;5031261;28;20421;-60
2023/05/02 12:37:52;;;;;;;;;;;;;;;19.44;75.81;98233.31;5035428;28;19925;-59
2023/05/02 12:40:17;;;;;;;;;;;;;;;19.53;75.61;98243.41;5032961;28;19921;-59
2023/05/02 12:42:43;;;;;;;;;;;;;;;19.55;75.35;98237.94;5046172;28;20389;-60
2023/05/02 12:45:17;;;;;;;;;;;;;;;19.59;73.42;98241.75;5012120;28;19964;-60
2023/05/02 12:47:43;;;;;;;;;;;;;;;19.63;72.99;98242.16;5052709;28;20295;-58
2023/05/02 12:50:09;;;;;;;;;;;;;;;19.65;71.42;98233.00;5050810;28;19923;-59
2023/05/02 12:52:50;;;;;;;;;;;;;;;19.81;71.84;98230.91;5010265;28;20473;-60
2023/05/02 12:55:17;;;;;;;;;;;;;;;19.88;71.42;98229.84;5022782;28;20687;-60
2023/05/02 12:57:43;;;;;;;;;;;;;;;20.05;68.66;98235.38;5032872;28;19925;-60
2023/05/02 13:00:08;;;;;;;;;;;;;;;20.01;67.31;98234.19;5019980;28;19982;-60
2023/05/02 13:02:34;;;;;;;;;;;;;;;20.09;67.11;98231.28;5039806;28;19921;-59
2023/05/02 13:04:59;;;;;;;;;;;;;;;20.06;66.43;98234.38;5033852;28;20015;-60
2023/05/02 13:07:24;;;;;;;;;;;;;;;20.10;67.56;98238.19;5065858;28;19967;-59
2023/05/02 13:09:50;;;;;;;;;;;;;;;20.09;66.20;98228.66;5047464;28;19970;-58
2023/05/02 13:12:17;;;;;;;;;;;;;;;20.35;68.59;98232.91;5056672;28;19929;-58
2023/05/02 13:14:45;;;;;;;;;;;;;;;20.19;64.56;98228.19;5054165;28;19927;-59
2023/05/02 13:17:10;;;;;;;;;;;;;;;20.29;66.74;98228.47;5055766;28;19924;-59
2023/05/02 13:19:35;;;;;;;;;;;;;;;20.28;64.82;98228.69;5058479;28;20346;-58
2023/05/02 13:22:03;;;;;;;;;;;;;;;20.38;64.45;98233.50;5037375;28;20607;-59
2023/05/02 13:24:28;;;;;;;;;;;;;;;20.51;63.15;98230.72;5042071;28;21074;-58
2023/05/02 13:27:01;;;;;;;;;;;;;;;20.61;62.82;98238.16;5035725;28;19935;-58
2023/05/02 13:29:26;;;;;;;;;;;;;;;20.62;62.66;98232.66;5072985;28;20503;-60
2023/05/02 13:31:52;;;;;;;;;;;;;;;20.52;59.72;98233.16;5053190;28;20040;-59
2023/05/02 13:34:17;;;;;;;;;;;;;;;20.59;61.91;98221.69;5057255;28;20558;-60
2023/05/02 13:36:45;;;;;;;;;;;;;;;20.62;62.30;98223.94;5070692;28;19990;-58
2023/05/02 13:39:12;;;;;;;;;;;;;;;20.67;61.95;98218.81;5079776;28;20429;-58
2023/05/02 13:41:38;;;;;;;;;;;;;;;20.71;60.41;98214.72;5069621;28;19926;-58
2023/05/02 13:44:03;;;;;;;;;;;;;;;20.58;61.36;98210.34;5066825;28;19924;-59
2023/05/02 13:46:34;;;;;;;;;;;;;;;20.80;61.14;98205.47;5057694;28;19942;-59
2023/05/02 13:49:01;;;;;;;;;;;;;;;20.82;59.56;98203.41;5041934;28;20019;-58
2023/05/02 13:51:30;;;;;;;;;;;;;;;20.82;59.83;98208.69;5081423;28;19932;-60
2023/05/02 13:53:58;;;;;;;;;;;;;;;20.92;60.21;98206.34;5052927;28;19929;-58
2023/05/02 13:56:23;;;;;;;;;;;;;;;21.02;59.83;98205.81;5067486;28;19920;-59
2023/05/02 13:58:48;;;;;;;;;;;;;;;20.98;59.33;98209.94;5056346;28;20402;-58
2023/05/02 14:01:14;;;;;;;;;;;;;;;21.13;58.80;98217.47;5059760;28;19935;-59
2023/05/02 14:03:39;;;;;;;;;;;;;;;21.18;58.50;98204.41;5039198;28;20009;-59
2023/05/02 14:06:04;;;;;;;;;;;;;;;21.24;57.87;98202.69;5041104;28;21135;-59
2023/05/02 14:08:32;;;;;;;;;;;;;;;21.05;56.72;98200.09;5069842;28;20496;-59
2023/05/02 14:11:00;;;;;;;;;;;;;;;20.78;58.73;98196.94;5063308;28;19935;-59
2023/05/02 14:13:25;;;;;;;;;;;;;;;20.63;60.51;98199.16;5054837;28;19968;-59
2023/05/02 14:15:53;;;;;;;;;;;;;;;20.64;61.16;98203.41;5039355;28;19929;-59
2023/05/02 14:18:18;;;;;;;;;;;;;;;20.88;61.67;98210.47;5079004;28;19922;-58
2023/05/02 14:20:43;;;;;;;;;;;;;;;21.06;58.43;98206.97;5055658;28;20006;-59
2023/05/02 14:23:09;;;;;;;;;;;;;;;21.22;61.11;98210.03;5095468;28;19916;-58
2023/05/02 14:25:39;;;;;;;;;;;;;;;21.29;59.96;98216.84;5072611;28;19928;-58
2023/05/02 14:28:05;;;;;;;;;;;;;;;21.28;58.42;98209.16;5043751;28;20470;-58
2023/05/02 14:30:30;;;;;;;;;;;;;;;21.35;59.26;98206.41;5015690;28;20415;-58
2023/05/02 14:32:55;;;;;;;;;;;;;;;21.36;59.96;98202.75;5039321;28;20023;-59
2023/05/02 14:35:23;;;;;;;;;;;;;;;21.31;59.64;98209.50;5038300;28;19960;-58
2023/05/02 14:37:51;;;;;;;;;;;;;;;21.38;59.40;98208.63;5029742;28;19986;-59
2023/05/02 14:40:18;;;;;;;;;;;;;;;21.28;57.65;98206.50;5039622;28;19958;-59
2023/05/02 14:42:44;;;;;;;;;;;;;;;21.42;58.64;98213.22;5052814;28;19917;-58
2023/05/02 14:45:09;;;;;;;;;;;;;;;21.47;58.71;98215.25;5041153;28;19931;-58
2023/05/02 14:47:35;;;;;;;;;;;;;;;21.46;58.87;98214.41;5054094;28;20391;-59
2023/05/02 14:50:03;;;;;;;;;;;;;;;21.56;59.26;98213.06;5047382;28;19943;-58
2023/05/02 14:52:28;;;;;;;;;;;;;;;21.62;59.42;98223.56;5041875;28;19928;-59
2023/05/02 14:54:57;;;;;;;;;;;;;;;21.39;59.07;98197.00;5042059;28;19924;-60
2023/05/02 14:57:22;;;;;;;;;;;;;;;21.62;57.75;98225.41;5019354;28;19920;-58
2023/05/02 14:59:48;;;;;;;;;;;;;;;21.40;56.99;98227.72;5054980;28;19928;-58
2023/05/02 15:02:13;;;;;;;;;;;;;;;21.43;58.34;98233.38;5067206;28;20267;-59
2023/05/02 15:04:38;;;;;;;;;;;;;;;21.54;58.09;98223.91;5050435;28;19971;-60
2023/05/02 15:07:03;;;;;;;;;;;;;;;21.29;58.46;98226.63;5054775;28;19924;-58
2023/05/02 15:09:29;;;;;;;;;;;;;;;21.05;59.67;98233.66;5037906;28;19978;-58
2023/05/02 15:11:54;;;;;;;;;;;;;;;20.91;60.19;98239.06;5025381;28;19974;-60
2023/05/02 15:14:20;;;;;;;;;;;;;;;20.81;61.75;98244.06;5056770;28;19963;-59
2023/05/02 15:16:48;;;;;;;;;;;;;;;20.76;61.58;98249.19;5041319;28;19928;-58
2023/05/02 15:19:15;;;;;;;;;;;;;;;20.50;62.71;98260.81;5038112;28;20368;-58
2023/05/02 15:21:41;;;;;;;;;;;;;;;20.53;63.07;98271.75;5056168;28;19927;-60
2023/05/02 15:24:06;;;;;;;;;;;;;;;20.47;62.47;98275.25;5040542;28;19921;-59
2023/05/02 15:26:34;;;;;;;;;;;;;;;20.50;62.91;98271.38;5056981;28;20299;-60
2023/05/02 15:29:02;;;;;;;;;;;;;;;20.41;62.48;98267.38;5037788;28;19928;-60
2023/05/02 15:31:27;;;;;;;;;;;;;;;20.50;63.66;98272.19;5057073;28;20339;-60
2023/05/02 15:33:52;;;;;;;;;;;;;;;20.54;63.58;98272.56;5050610;28;20069;-59
2023/05/02 15:36:17;;;;;;;;;;;;;;;20.66;63.47;98270.84;5057662;28;19920;-60
2023/05/02 15:38:48;;;;;;;;;;;;;;;20.68;63.27;98279.34;5016245;28;19920;-59
2023/05/02 15:41:16;;;;;;;;;;;;;;;20.65;62.98;98287.72;5043837;28;19943;-60
2023/05/02 15:43:43;;;;;;;;;;;;;;;20.54;62.92;98272.56;5049207;28;19932;-60
2023/05/02 15:46:09;;;;;;;;;;;;;;;20.74;62.59;98283.75;5038417;28;20930;-59
2023/05/02 15:48:35;;;;;;;;;;;;;;;20.68;62.98;98286.47;5036738;28;20371;-60
2023/05/02 15:51:04;;;;;;;;;;;;;;;20.73;62.41;98294.53;5037823;28;19932;-60
2023/05/02 15:53:29;;;;;;;;;;;;;;;20.66;62.56;98299.91;5054977;28;20390;-60
2023/05/02 15:55:54;;;;;;;;;;;;;;;20.63;62.76;98296.88;5036259;28;19975;-60
2023/05/02 15:58:19;;;;;;;;;;;;;;;20.45;63.93;98306.34;5068146;28;19925;-60
2023/05/02 16:00:46;;;;;;;;;;;;;;;20.34;63.47;98301.75;5052312;28;19924;-60
2023/05/02 16:03:11;;;;;;;;;;;;;;;20.26;64.02;98302.84;5014825;28;19928;-60
2023/05/02 16:05:37;;;;;;;;;;;;;;;20.35;63.88;98292.81;5023576;28;19970;-59
2023/05/02 16:08:02;;;;;;;;;;;;;;;20.17;63.26;98306.78;5035672;28;19974;-60
2023/05/02 16:10:30;;;;;;;;;;;;;;;20.13;64.24;98314.31;5048186;28;19962;-59
2023/05/02 16:12:55;;;;;;;;;;;;;;;20.16;63.69;98311.22;5034547;28;19928;-60
2023/05/02 16:15:23;;;;;;;;;;;;;;;20.07;65.13;98311.69;5037288;28;19929;-59
2023/05/02 16:17:53;;;;;;;;;;;;;;;20.01;64.92;98308.09;5017700;28;20018;-59
2023/05/02 16:20:21;;;;;;;;;;;;;;;19.88;64.86;98310.81;5035956;28;19996;-59
2023/05/02 16:22:49;;;;;;;;;;;;;;;20.00;64.46;98313.56;5034293;28;19981;-59
2023/05/02 16:25:19;;;;;;;;;;;;;;;19.86;64.86;98323.38;5034168;28;19929;-59
2023/05/02 16:27:47;;;;;;;;;;;;;;;19.43;66.00;98297.63;5037657;28;20038;-59
2023/05/02 16:30:12;;;;;;;;;;;;;;;19.38;66.87;98328.06;5033355;28;20019;-59
2023/05/02 16:32:40;;;;;;;;;;;;;;;19.25;67.33;98333.34;5057887;28;20053;-59
2023/05/02 16:35:07;;;;;;;;;;;;;;;19.22;68.31;98333.78;5046827;28;19929;-59
2023/05/02 16:37:32;;;;;;;;;;;;;;;19.20;67.81;98339.25;5069432;28;19956;-59
2023/05/02 16:39:57;;;;;;;;;;;;;;;19.11;68.78;98340.50;5032941;28;20419;-59
2023/05/02 16:42:25;;;;;;;;;;;;;;;19.04;69.46;98341.50;5025078;28;20380;-59
2023/05/02 16:44:51;;;;;;;;;;;;;;;18.93;69.99;98349.03;5053950;28;19935;-59
2023/05/02 16:47:16;;;;;;;;;;;;;;;18.90;70.75;98352.06;5061143;28;19920;-59
2023/05/02 16:49:44;;;;;;;;;;;;;;;18.85;70.92;98354.50;5039960;28;19924;-59
2023/05/02 16:52:09;;;;;;;;;;;;;;;18.84;70.08;98355.53;5023628;28;19925;-59
2023/05/02 16:54:34;;;;;;;;;;;;;;;18.81;70.16;98356.72;5046210;28;20655;-59
2023/05/02 16:57:02;;;;;;;;;;;;;;;18.74;70.65;98363.81;5039322;28;20581;-59
2023/05/02 16:59:28;;;;;;;;;;;;;;;18.63;71.84;98362.59;5041906;28;20019;-59
2023/05/02 17:01:53;;;;;;;;;;;;;;;18.49;72.84;98368.88;5058383;28;20000;-59
2023/05/02 17:04:21;;;;;;;;;;;;;;;18.28;74.19;98377.75;5045344;28;19920;-59
2023/05/02 17:06:46;;;;;;;;;;;;;;;18.25;74.36;98384.22;5039490;28;20027;-59
2023/05/02 17:09:12;;;;;;;;;;;;;;;18.22;74.76;98379.38;5067871;28;19929;-59
2023/05/02 17:11:37;;;;;;;;;;;;;;;18.12;76.38;98386.81;5054498;28;19944;-59
2023/05/02 17:14:02;;;;;;;;;;;;;;;18.10;76.06;98382.78;5036078;28;19934;-59
2023/05/02 17:16:28;;;;;;;;;;;;;;;17.94;76.91;98390.00;5048700;28;20023;-59
2023/05/02 17:18:53;;;;;;;;;;;;;;;17.94;76.41;98392.63;5032456;28;19932;-59
2023/05/02 17:21:21;;;;;;;;;;;;;;;17.91;76.76;98393.03;5037109;28;19931;-59
2023/05/02 17:23:46;;;;;;;;;;;;;;;17.93;76.95;98403.38;5065798;28;20016;-60
2023/05/02 17:26:15;;;;;;;;;;;;;;;17.94;77.66;98407.59;5055603;28;19924;-60
2023/05/02 17:28:43;;;;;;;;;;;;;;;17.92;77.99;98407.81;5026651;28;19967;-59
2023/05/02 17:31:11;;;;;;;;;;;;;;;17.89;78.18;98405.59;5023875;28;19920;-59
2023/05/02 17:33:40;;;;;;;;;;;;;;;17.81;78.88;98410.97;5055859;28;19931;-59
2023/05/02 17:36:06;;;;;;;;;;;;;;;17.86;78.88;98416.50;5035519;28;20048;-60
2023/05/02 17:38:33;;;;;;;;;;;;;;;17.82;78.80;98420.50;5016148;28;19956;-58
2023/05/02 17:40:59;;;;;;;;;;;;;;;17.77;79.05;98426.31;5052778;28;19924;-59
2023/05/02 17:43:29;;;;;;;;;;;;;;;17.76;78.75;98421.25;5034504;28;19966;-58
2023/05/02 17:45:57;;;;;;;;;;;;;;;17.48;79.52;98393.22;5038486;28;20027;-60
2023/05/02 17:48:22;;;;;;;;;;;;;;;17.71;79.44;98431.56;5052767;28;20453;-59
2023/05/02 17:50:49;;;;;;;;;;;;;;;17.63;79.88;98438.63;5049373;28;19924;-59
2023/05/02 17:53:17;;;;;;;;;;;;;;;17.54;81.22;98441.56;5035759;28;19935;-58
2023/05/02 17:55:42;;;;;;;;;;;;;;;17.38;81.96;98446.16;5057011;28;20019;-58
2023/05/02 17:58:08;;;;;;;;;;;;;;;17.20;82.43;98449.25;5041648;28;20610;-58
2023/05/02 18:00:35;;;;;;;;;;;;;;;17.21;83.21;98442.16;5036899;28;19932;-58
2023/05/02 18:03:01;;;;;;;;;;;;;;;17.23;84.21;98448.88;5061619;28;20374;-58
2023/05/02 18:05:26;;;;;;;;;;;;;;;17.32;82.11;98456.59;5041984;28;19928;-58
2023/05/02 18:07:52;;;;;;;;;;;;;;;17.29;81.69;98452.56;5034432;28;20992;-58
2023/05/02 18:10:17;;;;;;;;;;;;;;;17.23;82.33;98464.63;5064470;28;20011;-59
2023/05/02 18:12:42;;;;;;;;;;;;;;;17.19;82.97;98459.94;5050986;28;20015;-59
2023/05/02 18:15:11;;;;;;;;;;;;;;;17.12;83.69;98469.59;5037511;28;20387;-59
2023/05/02 18:17:36;;;;;;;;;;;;;;;17.07;84.32;98460.47;5054213;28;19932;-59
2023/05/02 18:20:04;;;;;;;;;;;;;;;17.07;85.31;98464.91;5071906;28;19974;-59
2023/05/02 18:22:32;;;;;;;;;;;;;;;17.00;86.71;98467.47;5026581;28;19928;-59
2023/05/02 18:24:58;;;;;;;;;;;;;;;16.88;87.97;98472.44;5053233;28;19928;-59
2023/05/02 18:27:24;;;;;;;;;;;;;;;16.83;88.34;98477.44;5032511;28;19940;-59
2023/05/02 18:29:49;;;;;;;;;;;;;;;16.78;88.86;98482.41;5063835;28;20303;-59
2023/05/02 18:32:16;;;;;;;;;;;;;;;16.80;88.42;98488.28;5073816;28;20589;-59
2023/05/02 18:34:43;;;;;;;;;;;;;;;16.73;88.90;98490.84;5066708;28;19924;-59
2023/05/02 18:37:11;;;;;;;;;;;;;;;16.64;89.88;98493.78;5072464;28;19932;-59
2023/05/02 18:39:36;;;;;;;;;;;;;;;16.64;89.61;98499.03;5066337;28;19935;-59
2023/05/02 18:42:02;;;;;;;;;;;;;;;16.56;91.26;98497.34;5071976;28;19924;-58
2023/05/02 18:44:28;;;;;;;;;;;;;;;16.46;92.63;98502.06;5055988;28;19962;-58
2023/05/02 18:46:56;;;;;;;;;;;;;;;16.47;91.81;98503.69;5039263;28;19981;-58
2023/05/02 18:49:22;;;;;;;;;;;;;;;16.47;89.78;98508.94;5059755;28;20042;-60
2023/05/02 18:51:48;;;;;;;;;;;;;;;16.47;89.32;98517.63;5035201;28;19928;-59
2023/05/02 18:54:13;;;;;;;;;;;;;;;16.32;92.31;98528.16;5075733;28;19966;-59
2023/05/02 18:56:41;;;;;;;;;;;;;;;16.13;95.19;98533.97;5053125;28;20239;-59
2023/05/02 18:59:07;;;;;;;;;;;;;;;15.87;96.21;98505.59;5045501;28;20303;-59
2023/05/02 19:01:33;;;;;;;;;;;;;;;16.08;96.04;98544.19;5071522;28;20421;-59
2023/05/02 19:04:02;;;;;;;;;;;;;;;16.11;95.21;98530.72;5072729;28;20070;-59
2023/05/02 19:06:55;;;;;;;;;;;;;;;16.17;94.09;98552.78;5056492;28;20404;-59
2023/05/02 19:09:39;;;;;;;;;;;;;;;16.01;94.98;98548.53;5032434;28;20800;-59
2023/05/02 19:12:15;;;;;;;;;;;;;;;15.93;96.90;98554.69;5076217;28;19935;-59
2023/05/02 19:14:49;;;;;;;;;;;;;;;16.01;96.37;98561.63;5070060;28;19924;-59
2023/05/02 19:17:15;;;;;;;;;;;;;;;15.83;98.38;98573.31;5052273;28;19924;-59
2023/05/02 19:19:40;;;;;;;;;;;;;;;15.74;98.58;98572.56;5071546;28;19928;-59
2023/05/02 19:22:06;;;;;;;;;;;;;;;15.75;98.98;98573.38;5067229;28;20611;-59
2023/05/02 19:24:33;;;;;;;;;;;;;;;15.66;99.90;98580.47;5084799;27;20416;-59
2023/05/02 19:27:05;;;;;;;;;;;;;;;15.55;100.00;98576.47;5068564;28;20606;-59
2023/05/02 19:29:33;;;;;;;;;;;;;;;15.58;100.00;98589.22;5061715;28;19929;-59
2023/05/02 19:31:58;;;;;;;;;;;;;;;15.56;100.00;98588.56;5052554;28;20407;-59
2023/05/02 19:34:24;;;;;;;;;;;;;;;15.49;100.00;98594.72;5057023;28;19925;-59
2023/05/02 19:36:56;;;;;;;;;;;;;;;15.51;100.00;98597.97;5025635;28;19932;-59
2023/05/02 19:39:23;;;;;;;;;;;;;;;15.48;100.00;98607.00;5052479;28;20599;-59
2023/05/02 19:41:52;;;;;;;;;;;;;;;15.47;100.00;98605.34;5050156;28;19928;-59
2023/05/02 19:47:53;;;;;;;;;;;;;;;15.44;100.00;98613.59;5064645;28;20349;-59
2023/05/02 19:50:27;;;;;;;;;;;;;;;15.28;100.00;98614.53;5055096;28;19969;-58
2023/05/02 19:53:29;;;;;;;;;;;;;;;15.19;100.00;98624.22;5049585;28;19924;-59
2023/05/02 22:46:57;;;;;;;;;;;;;;;13.97;100.00;98737.94;5112062;27;20386;-59
2023/05/02 23:29:36;;;;;;;;;;;;;;;13.77;100.00;98746.06;5066576;28;19970;-59
2023/05/02 23:56:57;;;;;;;;;;;;;;;13.75;100.00;98737.59;5069899;28;19943;-58
